OHEEK EFHK-EFTP
Flight info
| Callsign | OHEEK |
|---|---|
| Flight time | 0h 44m |
| Altitude | 3000 |
| Route | TURFI VIILA |
| Aircraft | C172/L-V/N |
Departure
| Time | 2026-05-04 20:00 |
|---|---|
| Airport | Helsinki Vantaa Airport (EFHK) |
Arrival
| Time | 2026-05-04 20:45 |
|---|---|
| Airport | Tampere-Pirkkala Airport (EFTP) |
| Time | Latitude | Longitude | Altitude | Speed | Heading |
|---|---|---|---|---|---|
| 2026-05-04 19:47 | 60.31753 | 24.96135 | 159 ft | 0 kts | 139° |
| 2026-05-04 19:54 | 60.31753 | 24.96136 | 159 ft | 1 kts | 137° |
| 2026-05-04 19:54 | 60.31769 | 24.96150 | 159 ft | 5 kts | 345° |
| 2026-05-04 19:54 | 60.31805 | 24.96113 | 159 ft | 2 kts | 321° |
| 2026-05-04 19:54 | 60.31818 | 24.96092 | 159 ft | 4 kts | 325° |
| 2026-05-04 19:55 | 60.31853 | 24.96052 | 158 ft | 8 kts | 356° |
| 2026-05-04 19:55 | 60.31909 | 24.96076 | 158 ft | 8 kts | 336° |
| 2026-05-04 19:55 | 60.31968 | 24.96049 | 157 ft | 12 kts | 41° |
| 2026-05-04 19:55 | 60.32023 | 24.96167 | 158 ft | 12 kts | 49° |
| 2026-05-04 19:56 | 60.32091 | 24.96313 | 159 ft | 17 kts | 45° |
| 2026-05-04 19:56 | 60.32166 | 24.96477 | 160 ft | 12 kts | 52° |
| 2026-05-04 19:56 | 60.32215 | 24.96590 | 161 ft | 8 kts | 44° |
| 2026-05-04 19:56 | 60.32230 | 24.96619 | 162 ft | 0 kts | 45° |
| 2026-05-04 19:57 | 60.32231 | 24.96622 | 162 ft | 2 kts | 45° |
| 2026-05-04 19:57 | 60.32267 | 24.96708 | 162 ft | 6 kts | 57° |
| 2026-05-04 19:57 | 60.32305 | 24.96796 | 163 ft | 12 kts | 85° |
| 2026-05-04 19:57 | 60.32220 | 24.96934 | 165 ft | 17 kts | 149° |
| 2026-05-04 19:58 | 60.32123 | 24.97037 | 166 ft | 15 kts | 151° |
| 2026-05-04 19:58 | 60.32018 | 24.97143 | 168 ft | 19 kts | 153° |
| 2026-05-04 19:58 | 60.31898 | 24.97267 | 170 ft | 19 kts | 152° |
| 2026-05-04 19:58 | 60.31794 | 24.97377 | 171 ft | 15 kts | 152° |
| 2026-05-04 19:59 | 60.31703 | 24.97470 | 172 ft | 15 kts | 153° |
| 2026-05-04 19:59 | 60.31678 | 24.97640 | 173 ft | 12 kts | 65° |
| 2026-05-04 19:59 | 60.31748 | 24.97729 | 171 ft | 14 kts | 360° |
| 2026-05-04 19:59 | 60.31903 | 24.97603 | 169 ft | 41 kts | 333° |
| 2026-05-04 20:00 | 60.32295 | 24.97212 | 216 ft | 77 kts | 325° |
| 2026-05-04 20:00 | 60.32822 | 24.96671 | 405 ft | 90 kts | 327° |
| 2026-05-04 20:00 | 60.33275 | 24.95932 | 621 ft | 86 kts | 270° |
| 2026-05-04 20:00 | 60.33325 | 24.94660 | 789 ft | 93 kts | 271° |
| 2026-05-04 20:01 | 60.33334 | 24.93342 | 995 ft | 94 kts | 266° |
| 2026-05-04 20:01 | 60.33145 | 24.92023 | 1000 ft | 107 kts | 240° |
| 2026-05-04 20:01 | 60.32446 | 24.91331 | 1005 ft | 116 kts | 201° |
| 2026-05-04 20:01 | 60.31700 | 24.90869 | 1183 ft | 111 kts | 205° |
| 2026-05-04 20:02 | 60.30955 | 24.90474 | 1319 ft | 110 kts | 211° |
| 2026-05-04 20:02 | 60.30363 | 24.89587 | 1364 ft | 105 kts | 243° |
| 2026-05-04 20:02 | 60.30393 | 24.88279 | 1533 ft | 101 kts | 306° |
| 2026-05-04 20:02 | 60.31063 | 24.87644 | 1662 ft | 109 kts | 332° |
| 2026-05-04 20:03 | 60.31776 | 24.87120 | 1753 ft | 110 kts | 330° |
| 2026-05-04 20:03 | 60.32539 | 24.86767 | 1851 ft | 116 kts | 347° |
| 2026-05-04 20:03 | 60.33359 | 24.87053 | 1999 ft | 122 kts | 7° |
| 2026-05-04 20:03 | 60.34134 | 24.87832 | 2113 ft | 128 kts | 19° |
| 2026-05-04 20:04 | 60.34949 | 24.88263 | 2189 ft | 117 kts | 348° |
| 2026-05-04 20:04 | 60.35725 | 24.88051 | 2279 ft | 113 kts | 339° |
| 2026-05-04 20:04 | 60.36516 | 24.87879 | 2395 ft | 113 kts | 342° |
| 2026-05-04 20:04 | 60.37285 | 24.87693 | 2558 ft | 109 kts | 341° |
| 2026-05-04 20:05 | 60.38019 | 24.87498 | 2743 ft | 105 kts | 340° |
| 2026-05-04 20:05 | 60.38785 | 24.87294 | 2713 ft | 118 kts | 342° |
| 2026-05-04 20:05 | 60.39619 | 24.87161 | 2742 ft | 119 kts | 346° |
| 2026-05-04 20:05 | 60.40433 | 24.87099 | 2894 ft | 114 kts | 347° |
| 2026-05-04 20:06 | 60.41202 | 24.87113 | 3077 ft | 111 kts | 347° |
| 2026-05-04 20:06 | 60.41967 | 24.87163 | 3277 ft | 108 kts | 349° |
| 2026-05-04 20:06 | 60.42718 | 24.87147 | 3388 ft | 107 kts | 343° |
| 2026-05-04 20:06 | 60.43470 | 24.86978 | 3462 ft | 111 kts | 340° |
| 2026-05-04 20:07 | 60.44215 | 24.86748 | 3619 ft | 109 kts | 339° |
| 2026-05-04 20:07 | 60.44972 | 24.86524 | 3726 ft | 109 kts | 340° |
| 2026-05-04 20:07 | 60.45728 | 24.86308 | 3887 ft | 104 kts | 339° |
| 2026-05-04 20:07 | 60.46443 | 24.86016 | 3995 ft | 108 kts | 332° |
| 2026-05-04 20:08 | 60.47214 | 24.85547 | 3895 ft | 120 kts | 333° |
| 2026-05-04 20:08 | 60.47992 | 24.84973 | 3892 ft | 114 kts | 322° |
| 2026-05-04 20:08 | 60.48584 | 24.84059 | 3934 ft | 109 kts | 313° |
| 2026-05-04 20:08 | 60.49221 | 24.83092 | 3810 ft | 117 kts | 315° |
| 2026-05-04 20:09 | 60.49827 | 24.82133 | 3806 ft | 114 kts | 314° |
| 2026-05-04 20:09 | 60.50438 | 24.81160 | 3859 ft | 108 kts | 313° |
| 2026-05-04 20:09 | 60.51040 | 24.80226 | 3874 ft | 110 kts | 314° |
| 2026-05-04 20:09 | 60.51662 | 24.79292 | 3906 ft | 107 kts | 313° |
| 2026-05-04 20:10 | 60.52119 | 24.78210 | 4004 ft | 99 kts | 298° |
| 2026-05-04 20:10 | 60.52400 | 24.77039 | 4180 ft | 90 kts | 282° |
| 2026-05-04 20:10 | 60.52819 | 24.75900 | 4058 ft | 111 kts | 311° |
| 2026-05-04 20:10 | 60.53393 | 24.74958 | 4183 ft | 103 kts | 309° |
| 2026-05-04 20:11 | 60.53920 | 24.73939 | 4141 ft | 108 kts | 307° |
| 2026-05-04 20:11 | 60.54518 | 24.72864 | 3914 ft | 120 kts | 315° |
| 2026-05-04 20:11 | 60.55242 | 24.71876 | 3622 ft | 125 kts | 319° |
| 2026-05-04 20:11 | 60.55960 | 24.71000 | 3654 ft | 113 kts | 321° |
| 2026-05-04 20:12 | 60.56592 | 24.70165 | 3740 ft | 106 kts | 311° |
| 2026-05-04 20:12 | 60.57189 | 24.69264 | 3782 ft | 108 kts | 319° |
| 2026-05-04 20:12 | 60.57857 | 24.68523 | 3825 ft | 110 kts | 324° |
| 2026-05-04 20:12 | 60.58315 | 24.68083 | 3851 ft | 111 kts | 325° |
| 2026-05-04 20:13 | 60.59032 | 24.67436 | 3806 ft | 116 kts | 326° |
| 2026-05-04 20:13 | 60.59780 | 24.66781 | 3755 ft | 117 kts | 326° |
| 2026-05-04 20:13 | 60.60548 | 24.66152 | 3656 ft | 122 kts | 331° |
| 2026-05-04 20:13 | 60.61332 | 24.65540 | 3600 ft | 120 kts | 328° |
| 2026-05-04 20:14 | 60.62081 | 24.64895 | 3586 ft | 116 kts | 325° |
| 2026-05-04 20:14 | 60.62753 | 24.64085 | 3636 ft | 109 kts | 318° |
| 2026-05-04 20:14 | 60.63366 | 24.63161 | 3626 ft | 110 kts | 314° |
| 2026-05-04 20:14 | 60.63970 | 24.62213 | 3622 ft | 111 kts | 315° |
| 2026-05-04 20:15 | 60.64604 | 24.61261 | 3546 ft | 114 kts | 316° |
| 2026-05-04 20:15 | 60.65255 | 24.60336 | 3506 ft | 114 kts | 317° |
| 2026-05-04 20:15 | 60.65919 | 24.59464 | 3505 ft | 113 kts | 319° |
| 2026-05-04 20:15 | 60.66583 | 24.58609 | 3482 ft | 113 kts | 318° |
| 2026-05-04 20:16 | 60.67235 | 24.57734 | 3477 ft | 113 kts | 319° |
| 2026-05-04 20:16 | 60.67890 | 24.56855 | 3462 ft | 112 kts | 318° |
| 2026-05-04 20:16 | 60.68541 | 24.55952 | 3411 ft | 114 kts | 317° |
| 2026-05-04 20:16 | 60.69191 | 24.55057 | 3429 ft | 112 kts | 318° |
| 2026-05-04 20:17 | 60.69864 | 24.54205 | 3428 ft | 113 kts | 320° |
| 2026-05-04 20:17 | 60.70546 | 24.53366 | 3403 ft | 115 kts | 321° |
| 2026-05-04 20:17 | 60.71252 | 24.52526 | 3283 ft | 120 kts | 321° |
| 2026-05-04 20:17 | 60.71992 | 24.51667 | 3100 ft | 124 kts | 321° |
| 2026-05-04 20:18 | 60.72724 | 24.50786 | 2956 ft | 124 kts | 321° |
| 2026-05-04 20:18 | 60.73459 | 24.49850 | 2762 ft | 124 kts | 320° |
| 2026-05-04 20:18 | 60.74162 | 24.48893 | 2674 ft | 121 kts | 317° |
| 2026-05-04 20:18 | 60.74827 | 24.47934 | 2752 ft | 109 kts | 314° |
| 2026-05-04 20:19 | 60.75347 | 24.46902 | 2860 ft | 105 kts | 301° |
| 2026-05-04 20:19 | 60.75707 | 24.45642 | 2916 ft | 103 kts | 291° |
| 2026-05-04 20:19 | 60.76055 | 24.44289 | 2874 ft | 105 kts | 294° |
| 2026-05-04 20:19 | 60.76357 | 24.42963 | 2920 ft | 101 kts | 282° |
| 2026-05-04 20:20 | 60.76573 | 24.41635 | 3029 ft | 98 kts | 286° |
| 2026-05-04 20:20 | 60.76820 | 24.40317 | 3021 ft | 105 kts | 288° |
| 2026-05-04 20:20 | 60.77103 | 24.38956 | 3047 ft | 103 kts | 289° |
| 2026-05-04 20:20 | 60.77426 | 24.37636 | 3055 ft | 105 kts | 291° |
| 2026-05-04 20:21 | 60.77777 | 24.36255 | 2892 ft | 113 kts | 294° |
| 2026-05-04 20:21 | 60.78183 | 24.34884 | 2760 ft | 117 kts | 303° |
| 2026-05-04 20:21 | 60.79333 | 24.32355 | 2346 ft | 117 kts | 308° |
| 2026-05-04 20:22 | 60.79909 | 24.31219 | 2333 ft | 114 kts | 309° |
| 2026-05-04 20:22 | 60.80563 | 24.30192 | 2184 ft | 122 kts | 318° |
| 2026-05-04 20:22 | 60.81235 | 24.29187 | 2102 ft | 120 kts | 316° |
| 2026-05-04 20:22 | 60.81934 | 24.28128 | 1929 ft | 130 kts | 318° |
| 2026-05-04 20:23 | 60.82699 | 24.27210 | 1940 ft | 125 kts | 323° |
| 2026-05-04 20:23 | 60.83458 | 24.26404 | 1970 ft | 122 kts | 321° |
| 2026-05-04 20:23 | 60.84218 | 24.25617 | 1999 ft | 122 kts | 328° |
| 2026-05-04 20:23 | 60.85011 | 24.24979 | 2003 ft | 123 kts | 330° |
| 2026-05-04 20:24 | 60.85803 | 24.24377 | 2028 ft | 121 kts | 330° |
| 2026-05-04 20:24 | 60.86607 | 24.23841 | 2048 ft | 121 kts | 333° |
| 2026-05-04 20:24 | 60.87395 | 24.23369 | 2139 ft | 117 kts | 334° |
| 2026-05-04 20:24 | 60.88185 | 24.22859 | 2110 ft | 120 kts | 330° |
| 2026-05-04 20:25 | 60.88978 | 24.22265 | 2060 ft | 123 kts | 329° |
| 2026-05-04 20:25 | 60.89786 | 24.21632 | 1979 ft | 124 kts | 328° |
| 2026-05-04 20:25 | 60.90558 | 24.20929 | 1993 ft | 121 kts | 325° |
| 2026-05-04 20:25 | 60.91333 | 24.20299 | 2007 ft | 120 kts | 326° |
| 2026-05-04 20:26 | 60.92190 | 24.19925 | 2033 ft | 127 kts | 348° |
| 2026-05-04 20:26 | 60.93063 | 24.19985 | 2146 ft | 127 kts | 356° |
| 2026-05-04 20:26 | 60.93952 | 24.20388 | 2092 ft | 137 kts | 1° |
| 2026-05-04 20:26 | 60.94897 | 24.20472 | 1988 ft | 134 kts | 350° |
| 2026-05-04 20:27 | 60.95814 | 24.20378 | 1948 ft | 132 kts | 347° |
| 2026-05-04 20:27 | 60.96692 | 24.19989 | 1905 ft | 128 kts | 330° |
| 2026-05-04 20:27 | 60.97464 | 24.19130 | 1888 ft | 122 kts | 324° |
| 2026-05-04 20:27 | 60.98183 | 24.18229 | 1832 ft | 124 kts | 317° |
| 2026-05-04 20:28 | 60.98897 | 24.17274 | 1880 ft | 117 kts | 318° |
| 2026-05-04 20:28 | 60.99553 | 24.16450 | 2183 ft | 101 kts | 320° |
| 2026-05-04 20:28 | 61.00115 | 24.15761 | 2539 ft | 89 kts | 319° |
| 2026-05-04 20:28 | 61.00634 | 24.15109 | 2781 ft | 90 kts | 317° |
| 2026-05-04 20:29 | 61.01210 | 24.14378 | 2875 ft | 102 kts | 316° |
| 2026-05-04 20:29 | 61.01612 | 24.13254 | 2982 ft | 96 kts | 276° |
| 2026-05-04 20:29 | 61.01615 | 24.11889 | 3105 ft | 96 kts | 287° |
| 2026-05-04 20:29 | 61.01943 | 24.10602 | 3144 ft | 100 kts | 292° |
| 2026-05-04 20:30 | 61.02245 | 24.09393 | 3353 ft | 92 kts | 293° |
| 2026-05-04 20:30 | 61.02633 | 24.08226 | 3416 ft | 98 kts | 300° |
| 2026-05-04 20:30 | 61.03082 | 24.07189 | 3529 ft | 102 kts | 307° |
| 2026-05-04 20:30 | 61.03622 | 24.06071 | 3398 ft | 112 kts | 307° |
| 2026-05-04 20:31 | 61.04179 | 24.04927 | 3291 ft | 118 kts | 312° |
| 2026-05-04 20:31 | 61.04998 | 24.04174 | 2902 ft | 140 kts | 340° |
| 2026-05-04 20:31 | 61.06006 | 24.04000 | 2445 ft | 149 kts | 351° |
| 2026-05-04 20:31 | 61.07025 | 24.03938 | 2163 ft | 144 kts | 348° |
| 2026-05-04 20:32 | 61.08032 | 24.03983 | 1961 ft | 144 kts | 356° |
| 2026-05-04 20:32 | 61.09029 | 24.03964 | 1766 ft | 144 kts | 346° |
| 2026-05-04 20:32 | 61.10017 | 24.03628 | 1569 ft | 143 kts | 341° |
| 2026-05-04 20:32 | 61.10964 | 24.03201 | 1529 ft | 134 kts | 336° |
| 2026-05-04 20:33 | 61.11831 | 24.02591 | 1476 ft | 133 kts | 332° |
| 2026-05-04 20:33 | 61.12694 | 24.02022 | 1582 ft | 125 kts | 333° |
| 2026-05-04 20:33 | 61.13525 | 24.01404 | 1541 ft | 131 kts | 330° |
| 2026-05-04 20:33 | 61.14335 | 24.00629 | 1638 ft | 122 kts | 324° |
| 2026-05-04 20:34 | 61.15042 | 23.99885 | 1915 ft | 111 kts | 324° |
| 2026-05-04 20:34 | 61.15752 | 23.99241 | 2153 ft | 105 kts | 323° |
| 2026-05-04 20:34 | 61.16384 | 23.98457 | 2292 ft | 107 kts | 317° |
| 2026-05-04 20:34 | 61.16993 | 23.97552 | 2290 ft | 115 kts | 318° |
| 2026-05-04 20:35 | 61.17578 | 23.96379 | 2361 ft | 122 kts | 311° |
| 2026-05-04 20:35 | 61.18193 | 23.95089 | 2180 ft | 128 kts | 314° |
| 2026-05-04 20:35 | 61.18774 | 23.93740 | 2204 ft | 126 kts | 310° |
| 2026-05-04 20:35 | 61.19344 | 23.92459 | 2322 ft | 121 kts | 308° |
| 2026-05-04 20:36 | 61.19881 | 23.91071 | 2304 ft | 125 kts | 312° |
| 2026-05-04 20:36 | 61.20427 | 23.89662 | 2277 ft | 127 kts | 303° |
| 2026-05-04 20:36 | 61.20938 | 23.88110 | 2145 ft | 132 kts | 303° |
| 2026-05-04 20:36 | 61.21452 | 23.86581 | 2181 ft | 128 kts | 304° |
| 2026-05-04 20:37 | 61.21947 | 23.85115 | 2007 ft | 131 kts | 306° |
| 2026-05-04 20:37 | 61.22499 | 23.83511 | 1882 ft | 134 kts | 304° |
| 2026-05-04 20:37 | 61.22978 | 23.81899 | 1862 ft | 131 kts | 300° |
| 2026-05-04 20:37 | 61.23485 | 23.80287 | 1693 ft | 136 kts | 303° |
| 2026-05-04 20:38 | 61.24100 | 23.78687 | 1386 ft | 142 kts | 310° |
| 2026-05-04 20:38 | 61.24754 | 23.77222 | 1346 ft | 132 kts | 313° |
| 2026-05-04 20:38 | 61.25410 | 23.75961 | 1477 ft | 123 kts | 319° |
| 2026-05-04 20:38 | 61.26057 | 23.74767 | 1489 ft | 128 kts | 312° |
| 2026-05-04 20:39 | 61.26800 | 23.73695 | 1438 ft | 133 kts | 330° |
| 2026-05-04 20:39 | 61.27607 | 23.72739 | 1383 ft | 133 kts | 331° |
| 2026-05-04 20:39 | 61.28389 | 23.71820 | 1390 ft | 131 kts | 330° |
| 2026-05-04 20:39 | 61.29208 | 23.70920 | 1293 ft | 134 kts | 334° |
| 2026-05-04 20:40 | 61.30044 | 23.70053 | 1218 ft | 133 kts | 333° |
| 2026-05-04 20:40 | 61.30822 | 23.69122 | 1320 ft | 125 kts | 328° |
| 2026-05-04 20:40 | 61.31559 | 23.68152 | 1373 ft | 128 kts | 326° |
| 2026-05-04 20:40 | 61.32334 | 23.67115 | 1230 ft | 136 kts | 329° |
| 2026-05-04 20:41 | 61.33144 | 23.66159 | 1197 ft | 133 kts | 330° |
| 2026-05-04 20:41 | 61.33890 | 23.65010 | 1116 ft | 133 kts | 313° |
| 2026-05-04 20:41 | 61.34493 | 23.63555 | 1079 ft | 131 kts | 310° |
| 2026-05-04 20:41 | 61.35028 | 23.62035 | 1065 ft | 131 kts | 304° |
| 2026-05-04 20:42 | 61.35577 | 23.60641 | 1303 ft | 117 kts | 315° |
| 2026-05-04 20:42 | 61.36206 | 23.59502 | 1423 ft | 120 kts | 324° |
| 2026-05-04 20:42 | 61.36922 | 23.58519 | 1472 ft | 125 kts | 330° |
| 2026-05-04 20:42 | 61.37655 | 23.57730 | 1517 ft | 110 kts | 334° |
| 2026-05-04 20:43 | 61.38265 | 23.57073 | 1511 ft | 94 kts | 331° |
| 2026-05-04 20:43 | 61.38780 | 23.56478 | 1462 ft | 77 kts | 330° |
| 2026-05-04 20:43 | 61.39242 | 23.55905 | 1274 ft | 79 kts | 329° |
| 2026-05-04 20:43 | 61.39730 | 23.55513 | 1103 ft | 74 kts | 1° |
| 2026-05-04 20:44 | 61.40224 | 23.55820 | 874 ft | 75 kts | 37° |
| 2026-05-04 20:44 | 61.40543 | 23.56647 | 666 ft | 73 kts | 69° |
| 2026-05-04 20:44 | 61.40752 | 23.57538 | 525 ft | 63 kts | 65° |
| 2026-05-04 20:44 | 61.40941 | 23.58348 | 420 ft | 59 kts | 65° |
| 2026-05-04 20:45 | 61.41083 | 23.58991 | 405 ft | 32 kts | 64° |
| 2026-05-04 20:45 | 61.41162 | 23.59096 | 405 ft | 13 kts | 327° |
| 2026-05-04 20:45 | 61.41219 | 23.59037 | 406 ft | 7 kts | 320° |
| 2026-05-04 20:45 | 61.41241 | 23.58899 | 406 ft | 16 kts | 259° |
| 2026-05-04 20:46 | 61.41140 | 23.58395 | 408 ft | 66 kts | 246° |
| 2026-05-04 20:46 | 61.40818 | 23.57697 | 619 ft | 79 kts | 159° |
| 2026-05-04 20:46 | 61.40685 | 23.58880 | 709 ft | 103 kts | 75° |
| 2026-05-04 20:46 | 61.40952 | 23.60334 | 868 ft | 112 kts | 66° |
| 2026-05-04 20:47 | 61.41371 | 23.61685 | 1201 ft | 98 kts | 54° |
| 2026-05-04 20:47 | 61.41821 | 23.62883 | 1296 ft | 117 kts | 54° |
| 2026-05-04 20:47 | 61.42394 | 23.64238 | 1253 ft | 129 kts | 48° |
| 2026-05-04 20:47 | 61.42951 | 23.65810 | 1001 ft | 138 kts | 57° |
| 2026-05-04 20:48 | 61.43504 | 23.67305 | 1177 ft | 122 kts | 49° |
| 2026-05-04 20:48 | 61.44178 | 23.68407 | 1194 ft | 129 kts | 25° |
| 2026-05-04 20:48 | 61.45077 | 23.68724 | 1070 ft | 135 kts | 27° |
| 2026-05-04 20:48 | 61.45862 | 23.69988 | 634 ft | 143 kts | 32° |
| 2026-05-04 20:49 | 61.46360 | 23.71591 | 395 ft | 141 kts | 83° |
| 2026-05-04 20:49 | 61.46738 | 23.73063 | 737 ft | 108 kts | 68° |
| 2026-05-04 20:49 | 61.46963 | 23.74545 | 487 ft | 98 kts | 81° |
| 2026-05-04 20:49 | 61.47220 | 23.75672 | 330 ft | 82 kts | 45° |
| 2026-05-04 20:50 | 61.47359 | 23.76121 | 306 ft | 0 kts | 78° |